createdAt,value
2022-11-24T00:02:19.756Z,8.54
2022-11-24T00:07:21.340Z,8.54
2022-11-24T00:12:22.824Z,8.45
2022-11-24T00:17:24.323Z,8.39
2022-11-24T00:22:25.747Z,8.42
2022-11-24T00:27:27.182Z,8.33
2022-11-24T00:32:29.795Z,8.49
2022-11-24T00:37:31.254Z,8.38
2022-11-24T00:42:32.710Z,8.28
2022-11-24T00:47:34.183Z,8.49
2022-11-24T00:52:35.629Z,8.48
2022-11-24T00:57:37.053Z,8.49
2022-11-24T01:02:38.607Z,8.70
2022-11-24T01:07:40.184Z,8.77
2022-11-24T01:12:41.688Z,8.80
2022-11-24T01:17:43.259Z,8.73
2022-11-24T01:22:44.782Z,8.88
2022-11-24T01:27:46.237Z,8.96
2022-11-24T01:32:47.718Z,8.93
2022-11-24T01:37:49.160Z,8.83
2022-11-24T01:42:52.587Z,8.86
2022-11-24T01:47:54.358Z,8.80
2022-11-24T01:52:56.984Z,8.70
2022-11-24T01:58:13.240Z,8.80
2022-11-24T02:03:19.439Z,8.80
2022-11-24T02:08:29.427Z,8.74
2022-11-24T02:13:34.347Z,8.80
2022-11-24T02:18:38.336Z,8.74
2022-11-24T02:23:48.000Z,8.68
2022-11-24T02:28:49.940Z,8.64
2022-11-24T02:33:51.766Z,8.63
2022-11-24T02:38:53.214Z,8.60
2022-11-24T02:43:56.682Z,8.55
2022-11-24T02:48:58.151Z,8.40
2022-11-24T02:53:59.897Z,8.27
2022-11-24T02:59:01.386Z,8.28
2022-11-24T03:04:02.915Z,8.43
2022-11-24T03:09:04.937Z,8.36
2022-11-24T03:14:06.939Z,8.43
2022-11-24T03:19:08.432Z,8.66
2022-11-24T03:24:09.962Z,8.52
2022-11-24T03:29:11.447Z,8.47
2022-11-24T03:34:12.867Z,8.52
2022-11-24T03:39:14.404Z,8.58
2022-11-24T03:44:15.844Z,8.64
2022-11-24T03:49:17.525Z,8.62
2022-11-24T03:54:18.972Z,8.64
2022-11-24T03:59:20.465Z,8.76
2022-11-24T04:04:21.905Z,8.67
2022-11-24T04:09:23.352Z,8.51
2022-11-24T04:14:24.814Z,8.54
2022-11-24T04:19:26.296Z,8.47
2022-11-24T04:24:27.715Z,8.60
2022-11-24T04:29:29.200Z,8.67
2022-11-24T04:34:30.752Z,8.67
2022-11-24T04:39:32.343Z,8.73
2022-11-24T04:44:34.198Z,8.72
2022-11-24T04:49:35.839Z,8.77
2022-11-24T04:54:37.274Z,8.61
2022-11-24T04:59:38.711Z,8.65
2022-11-24T05:04:40.223Z,8.66
2022-11-24T05:09:58.463Z,8.58
2022-11-24T05:15:02.265Z,8.43
2022-11-24T05:20:05.512Z,8.35
2022-11-24T05:25:07.199Z,8.45
2022-11-24T05:30:09.434Z,8.55
2022-11-24T05:35:10.856Z,8.60
2022-11-24T05:40:12.292Z,8.59
2022-11-24T05:45:16.787Z,8.55
2022-11-24T05:50:20.285Z,8.53
2022-11-24T05:55:21.731Z,8.50
2022-11-24T06:00:23.130Z,8.52
2022-11-24T06:05:25.332Z,8.58
2022-11-24T06:10:27.069Z,8.61
2022-11-24T06:15:28.522Z,8.62
2022-11-24T06:20:32.678Z,8.78
2022-11-24T06:25:34.606Z,8.62
2022-11-24T06:30:36.074Z,8.62
2022-11-24T06:35:37.479Z,8.62
2022-11-24T06:40:38.870Z,8.89
2022-11-24T06:45:40.339Z,8.78
2022-11-24T06:50:41.816Z,8.74
2022-11-24T06:55:44.086Z,8.92
2022-11-24T07:00:45.588Z,8.83
2022-11-24T07:05:47.089Z,8.70
2022-11-24T07:10:48.561Z,8.79
2022-11-24T07:15:50.041Z,8.92
2022-11-24T07:20:51.502Z,9.08
2022-11-24T07:25:52.892Z,9.06
2022-11-24T07:30:54.343Z,9.09
2022-11-24T07:35:59.668Z,9.18
2022-11-24T07:41:06.156Z,9.22
2022-11-24T07:46:10.344Z,9.28
2022-11-24T07:51:12.077Z,9.40
2022-11-24T07:56:13.576Z,9.58
2022-11-24T08:01:18.670Z,9.16
2022-11-24T08:06:27.281Z,9.25
2022-11-24T08:11:31.836Z,9.49
2022-11-24T08:16:33.437Z,9.44
2022-11-24T08:21:34.874Z,9.45
2022-11-24T08:26:36.388Z,9.60
2022-11-24T08:31:39.063Z,9.53
2022-11-24T08:36:40.515Z,9.68
2022-11-24T08:41:41.924Z,9.75
2022-11-24T08:46:43.766Z,9.45
2022-11-24T08:51:45.233Z,9.32
2022-11-24T08:56:49.144Z,9.30
2022-11-24T09:01:50.652Z,8.92
2022-11-24T09:06:52.080Z,8.79
2022-11-24T09:11:53.532Z,8.69
2022-11-24T09:16:54.999Z,8.67
2022-11-24T09:21:56.525Z,8.62
2022-11-24T09:26:57.970Z,8.61
2022-11-24T09:32:03.606Z,8.53
2022-11-24T09:37:08.050Z,8.49
2022-11-24T09:42:35.642Z,8.37
2022-11-24T09:47:58.682Z,8.28
2022-11-24T09:53:26.222Z,8.47
2022-11-24T09:58:37.294Z,8.78
2022-11-24T10:03:42.299Z,8.96
2022-11-24T10:09:02.319Z,9.69
2022-11-24T10:14:22.587Z,10.52
2022-11-24T10:19:52.823Z,11.12
2022-11-24T10:25:31.991Z,12.14
2022-11-24T10:30:33.447Z,12.40
2022-11-24T10:35:41.414Z,12.48
2022-11-24T10:40:57.032Z,12.11
2022-11-24T10:46:22.375Z,11.89
2022-11-24T10:51:34.688Z,12.27
2022-11-24T10:56:43.462Z,13.27
2022-11-24T11:01:44.959Z,15.04
2022-11-24T11:06:46.517Z,16.36
2022-11-24T11:11:48.992Z,18.29
2022-11-24T11:16:52.336Z,18.33
2022-11-24T11:22:02.298Z,19.13
2022-11-24T11:27:20.299Z,19.92
2022-11-24T11:37:49.453Z,14.27
2022-11-24T11:43:13.791Z,12.77
2022-11-24T11:48:42.421Z,11.70
2022-11-24T11:53:56.670Z,11.35
2022-11-24T11:59:16.670Z,11.01
2022-11-24T12:04:39.942Z,10.79
2022-11-24T12:09:59.661Z,10.64
2022-11-24T12:15:20.005Z,11.91
2022-11-24T12:20:37.791Z,14.58
2022-11-24T12:25:45.117Z,13.90
2022-11-24T12:31:07.294Z,13.13
2022-11-24T12:36:30.707Z,15.47
2022-11-24T12:41:42.505Z,14.94
2022-11-24T12:46:53.374Z,15.15
2022-11-24T12:52:01.428Z,14.99
2022-11-24T12:57:22.576Z,16.14
2022-11-24T13:02:42.749Z,16.97
2022-11-24T13:07:57.153Z,17.25
2022-11-24T13:13:10.171Z,17.31
2022-11-24T13:18:50.110Z,16.79
2022-11-24T13:23:59.583Z,16.44
2022-11-24T13:29:13.311Z,16.20
2022-11-24T13:34:45.430Z,16.38
2022-11-24T13:39:52.066Z,16.56
2022-11-24T13:44:58.711Z,16.62
2022-11-24T13:50:01.790Z,16.76
2022-11-24T13:55:18.101Z,16.61
2022-11-24T14:00:35.430Z,16.14
2022-11-24T14:05:39.059Z,15.36
2022-11-24T14:10:41.921Z,14.67
2022-11-24T14:15:43.487Z,13.93
2022-11-24T14:20:45.029Z,13.39
2022-11-24T14:25:50.660Z,13.02
2022-11-24T14:31:09.283Z,12.68
2022-11-24T14:36:14.890Z,12.68
2022-11-24T14:41:23.290Z,12.31
2022-11-24T14:46:24.951Z,12.16
2022-11-24T14:51:33.710Z,12.29
2022-11-24T14:56:37.475Z,12.01
2022-11-24T15:01:38.948Z,11.97
2022-11-24T15:06:42.615Z,12.04
2022-11-24T15:11:44.046Z,11.97
2022-11-24T15:16:45.701Z,11.66
2022-11-24T15:21:49.229Z,11.48
2022-11-24T15:26:58.878Z,11.49
2022-11-24T15:32:00.437Z,11.35
2022-11-24T15:37:02.214Z,11.43
2022-11-24T15:42:03.716Z,11.27
2022-11-24T15:47:05.302Z,11.19
2022-11-24T15:52:06.871Z,11.00
2022-11-24T15:57:10.637Z,10.88
2022-11-24T16:02:12.164Z,10.87
2022-11-24T16:07:14.143Z,10.85
2022-11-24T16:12:15.635Z,10.65
2022-11-24T16:17:17.103Z,10.64
2022-11-24T16:22:18.527Z,10.49
2022-11-24T16:27:19.990Z,10.44
2022-11-24T16:32:21.531Z,10.47
2022-11-24T16:37:23.668Z,10.36
2022-11-24T16:42:25.147Z,10.20
2022-11-24T16:47:26.603Z,9.87
2022-11-24T16:52:28.000Z,9.70
2022-11-24T16:57:29.471Z,9.59
2022-11-24T17:02:30.907Z,9.68
2022-11-24T17:07:32.775Z,9.55
2022-11-24T17:12:35.784Z,9.36
2022-11-24T17:17:37.629Z,9.27
2022-11-24T17:22:39.168Z,9.24
2022-11-24T17:27:40.643Z,9.13
2022-11-24T17:32:42.093Z,9.11
2022-11-24T17:37:43.571Z,9.10
2022-11-24T17:42:45.124Z,9.09
2022-11-24T17:47:46.597Z,9.14
2022-11-24T17:52:48.087Z,9.12
2022-11-24T17:57:49.500Z,9.05
2022-11-24T18:02:50.988Z,9.05
2022-11-24T18:07:52.552Z,8.97
2022-11-24T18:12:54.024Z,8.91
2022-11-24T18:17:55.631Z,8.85
2022-11-24T18:23:05.425Z,8.59
2022-11-24T18:28:08.183Z,8.57
2022-11-24T18:33:09.709Z,8.52
2022-11-24T18:38:11.121Z,8.44
2022-11-24T18:43:12.511Z,8.25
2022-11-24T18:48:14.706Z,8.12
2022-11-24T18:53:16.165Z,7.81
2022-11-24T18:58:17.600Z,7.97
2022-11-24T19:03:19.060Z,7.69
2022-11-24T19:08:20.487Z,7.34
2022-11-24T19:13:22.010Z,7.29
2022-11-24T19:18:23.412Z,7.16
2022-11-24T19:23:25.048Z,7.07
2022-11-24T19:28:26.611Z,7.15
2022-11-24T19:33:28.508Z,6.94
2022-11-24T19:38:34.558Z,6.66
2022-11-24T19:43:36.132Z,6.56
2022-11-24T19:48:42.808Z,6.58
2022-11-24T19:53:44.986Z,6.52
2022-11-24T19:58:47.953Z,6.47
2022-11-24T20:04:13.837Z,6.43
2022-11-24T20:09:16.981Z,6.33
2022-11-24T20:14:19.483Z,6.20
2022-11-24T20:19:20.993Z,6.06
2022-11-24T20:24:23.106Z,5.93
2022-11-24T20:29:25.224Z,5.66
2022-11-24T20:34:26.785Z,5.72
2022-11-24T20:39:28.357Z,5.70
2022-11-24T20:44:29.874Z,5.80
2022-11-24T20:49:31.337Z,5.80
2022-11-24T20:54:33.084Z,5.69
2022-11-24T20:59:34.918Z,5.69
2022-11-24T21:04:36.754Z,5.80
2022-11-24T21:09:38.389Z,5.90
2022-11-24T21:14:40.148Z,5.95
2022-11-24T21:19:41.807Z,5.94
2022-11-24T21:24:43.189Z,5.91
2022-11-24T21:29:44.642Z,5.70
2022-11-24T21:34:46.147Z,5.51
2022-11-24T21:39:47.789Z,5.48
2022-11-24T21:44:49.349Z,5.55
2022-11-24T21:49:50.818Z,5.46
2022-11-24T21:54:52.227Z,5.52
2022-11-24T21:59:53.692Z,5.47
2022-11-24T22:04:55.114Z,5.38
2022-11-24T22:09:56.586Z,5.37
2022-11-24T22:14:58.075Z,5.40
2022-11-24T22:19:59.522Z,5.28
2022-11-24T22:25:00.882Z,5.23
2022-11-24T22:30:02.339Z,5.34
2022-11-24T22:35:04.204Z,5.53
2022-11-24T22:40:06.352Z,5.72
2022-11-24T22:45:08.306Z,5.83
2022-11-24T22:50:10.285Z,5.98
2022-11-24T22:55:11.719Z,5.86
2022-11-24T23:00:14.258Z,5.79
2022-11-24T23:05:20.601Z,5.81
2022-11-24T23:10:22.390Z,5.87
2022-11-24T23:15:23.884Z,5.81
2022-11-24T23:20:25.317Z,5.89
2022-11-24T23:25:26.753Z,5.92
2022-11-24T23:30:28.208Z,5.98
2022-11-24T23:35:29.695Z,6.15
2022-11-24T23:40:31.184Z,6.08
2022-11-24T23:45:32.619Z,6.09
2022-11-24T23:50:35.250Z,6.03
2022-11-24T23:55:36.684Z,5.85
